Hauptseite
METAR-TAF:

METAR-TAF

Flughäfen :

Flugplatz Laupheim

Laupheim, Deutschland

Breite: 48-13N, Länge: 009-55E, Höhe: 538 m

Beobachtung

Neuester Wetterbericht von vor 41 Minuten, um 02:20 UTC
Wind 1 kt aus Ost/Südost
Temperatur 15°C
Luftfeuchtigkeit 77%
Luftdruck 1015 hPa
Sichtweite 10 km oder mehr
Leicht bewölkt in der Höhe von 33000 ft

METAR: ETHL 170220Z 12001KT 9999 FEW330 15/11 Q1015 BLACKBLU+

Zeit: 05:01 (03:01 UTC)

Prognose

Neuester Wetterbericht von vor 12 Stunden und 54 Minuten, um 14:07 UTC
Gültige Prognose vom 16 um 14 UTC bis 16 um 23 UTC
Wind 5 kt aus Ost/Nordost
Sichtweite: 1500 m
Leicht bewölkt in der Höhe von 6000 ft

TAF: ETHL 161407Z 1614/1623 07005KT 9999 NSW FEW060 CANCEL 1500

Wetterbeobachtungen und Prognosen von mehr als 4000 Flughäfen (METAR und TAF Bericht).

Die verfügbaren Stationen werden durch gelbe und rote Markierungen auf der Karte dargestellt.

Führen Sie die Maus auf sie, um den Namen der Station zu sehen.

Darauf klicken, um die Beobachtung von Wetterbeobachtungen und Prognosen zu sehen.

Um die Karte zu ändern : klicken Sie auf den grünen Tasten mit einem schwarzen Kreuz Zum Vergrößern, auf den grünen Button mit einem Gedankenstrich zu verkleinern, oder auf die grünen Pfeile für benachbarte Karten.


METAR-TAF: